sensor_id;sensor_type;location;lat;lon;timestamp;temperature;humidity
10143;DHT22;5112;54.088;13.446;2023-03-24T00:07:07;9.00;99.90
10143;DHT22;5112;54.088;13.446;2023-03-24T00:17:13;9.10;99.90
10143;DHT22;5112;54.088;13.446;2023-03-24T00:27:18;9.10;99.90
10143;DHT22;5112;54.088;13.446;2023-03-24T00:37:20;9.20;99.90
10143;DHT22;5112;54.088;13.446;2023-03-24T00:47:24;9.30;99.90
10143;DHT22;5112;54.088;13.446;2023-03-24T00:57:26;9.30;99.90
10143;DHT22;5112;54.088;13.446;2023-03-24T01:07:30;9.30;99.90
10143;DHT22;5112;54.088;13.446;2023-03-24T01:17:32;9.20;99.90
10143;DHT22;5112;54.088;13.446;2023-03-24T01:27:36;9.20;99.90
10143;DHT22;5112;54.088;13.446;2023-03-24T01:37:38;9.30;99.90
10143;DHT22;5112;54.088;13.446;2023-03-24T01:47:41;9.40;99.90
10143;DHT22;5112;54.088;13.446;2023-03-24T01:57:46;9.50;99.90
10143;DHT22;5112;54.088;13.446;2023-03-24T02:07:53;9.50;99.90
10143;DHT22;5112;54.088;13.446;2023-03-24T02:18:04;9.60;99.90
10143;DHT22;5112;54.088;13.446;2023-03-24T02:28:19;9.70;99.90
10143;DHT22;5112;54.088;13.446;2023-03-24T02:38:48;9.80;99.90
10143;DHT22;5112;54.088;13.446;2023-03-24T02:49:07;9.80;99.90
10143;DHT22;5112;54.088;13.446;2023-03-24T02:59:15;9.90;99.90
10143;DHT22;5112;54.088;13.446;2023-03-24T03:09:20;9.90;99.90
10143;DHT22;5112;54.088;13.446;2023-03-24T03:19:26;9.90;99.90
10143;DHT22;5112;54.088;13.446;2023-03-24T03:29:33;9.80;99.90
10143;DHT22;5112;54.088;13.446;2023-03-24T03:39:41;9.90;99.90
10143;DHT22;5112;54.088;13.446;2023-03-24T03:49:45;9.80;99.90
10143;DHT22;5112;54.088;13.446;2023-03-24T03:59:47;9.70;99.90
10143;DHT22;5112;54.088;13.446;2023-03-24T04:09:57;9.70;99.90
10143;DHT22;5112;54.088;13.446;2023-03-24T04:20:07;9.80;99.90
10143;DHT22;5112;54.088;13.446;2023-03-24T04:30:15;9.90;99.90
10143;DHT22;5112;54.088;13.446;2023-03-24T04:40:23;9.70;99.90
10143;DHT22;5112;54.088;13.446;2023-03-24T04:50:28;9.80;99.90
10143;DHT22;5112;54.088;13.446;2023-03-24T05:00:31;9.80;99.90
10143;DHT22;5112;54.088;13.446;2023-03-24T05:10:34;9.80;99.90
10143;DHT22;5112;54.088;13.446;2023-03-24T05:20:36;9.80;99.90
10143;DHT22;5112;54.088;13.446;2023-03-24T05:30:38;10.00;99.90
10143;DHT22;5112;54.088;13.446;2023-03-24T05:40:40;10.00;99.90
10143;DHT22;5112;54.088;13.446;2023-03-24T05:50:43;10.10;99.90
10143;DHT22;5112;54.088;13.446;2023-03-24T06:00:45;10.20;99.90
10143;DHT22;5112;54.088;13.446;2023-03-24T06:10:48;10.30;99.90
10143;DHT22;5112;54.088;13.446;2023-03-24T06:20:53;10.40;99.90
10143;DHT22;5112;54.088;13.446;2023-03-24T06:30:57;10.60;99.90
10143;DHT22;5112;54.088;13.446;2023-03-24T06:41:00;10.80;99.90
10143;DHT22;5112;54.088;13.446;2023-03-24T06:51:03;10.80;99.90
10143;DHT22;5112;54.088;13.446;2023-03-24T07:01:05;10.70;99.90
10143;DHT22;5112;54.088;13.446;2023-03-24T07:11:08;10.90;99.90
10143;DHT22;5112;54.088;13.446;2023-03-24T07:21:10;11.00;99.90
10143;DHT22;5112;54.088;13.446;2023-03-24T07:31:13;11.20;99.90
10143;DHT22;5112;54.088;13.446;2023-03-24T07:41:15;11.30;99.90
10143;DHT22;5112;54.088;13.446;2023-03-24T07:51:18;11.40;99.90
10143;DHT22;5112;54.088;13.446;2023-03-24T08:01:20;11.60;99.90
10143;DHT22;5112;54.088;13.446;2023-03-24T08:11:23;11.70;99.90
10143;DHT22;5112;54.088;13.446;2023-03-24T08:21:25;12.00;99.90
10143;DHT22;5112;54.088;13.446;2023-03-24T08:31:31;12.00;99.90
10143;DHT22;5112;54.088;13.446;2023-03-24T08:59:09;12.40;99.90
10143;DHT22;5112;54.088;13.446;2023-03-24T09:09:10;13.00;99.90
10143;DHT22;5112;54.088;13.446;2023-03-24T09:19:13;12.80;99.90
10143;DHT22;5112;54.088;13.446;2023-03-24T09:29:15;12.60;99.90
10143;DHT22;5112;54.088;13.446;2023-03-24T09:39:19;12.60;99.90
10143;DHT22;5112;54.088;13.446;2023-03-24T09:49:22;12.60;99.90
10143;DHT22;5112;54.088;13.446;2023-03-24T09:59:33;12.80;99.90
10143;DHT22;5112;54.088;13.446;2023-03-24T10:09:35;13.00;99.90
10143;DHT22;5112;54.088;13.446;2023-03-24T10:19:43;13.20;99.90
10143;DHT22;5112;54.088;13.446;2023-03-24T10:29:51;13.30;99.90
10143;DHT22;5112;54.088;13.446;2023-03-24T10:40:06;13.30;99.90
10143;DHT22;5112;54.088;13.446;2023-03-24T10:50:12;14.00;99.90
10143;DHT22;5112;54.088;13.446;2023-03-24T11:00:20;14.10;99.90
10143;DHT22;5112;54.088;13.446;2023-03-24T11:10:24;13.60;99.90
10143;DHT22;5112;54.088;13.446;2023-03-24T11:20:32;14.60;99.90
10143;DHT22;5112;54.088;13.446;2023-03-24T11:30:42;13.80;99.90
10143;DHT22;5112;54.088;13.446;2023-03-24T11:40:53;13.80;99.90
10143;DHT22;5112;54.088;13.446;2023-03-24T11:50:57;14.10;99.90
10143;DHT22;5112;54.088;13.446;2023-03-24T12:01:05;14.20;99.90
10143;DHT22;5112;54.088;13.446;2023-03-24T12:11:14;14.20;99.90
10143;DHT22;5112;54.088;13.446;2023-03-24T12:21:23;14.90;99.90
10143;DHT22;5112;54.088;13.446;2023-03-24T12:31:42;15.10;99.90
10143;DHT22;5112;54.088;13.446;2023-03-24T12:42:07;15.00;99.90
10143;DHT22;5112;54.088;13.446;2023-03-24T12:52:29;14.60;99.90
10143;DHT22;5112;54.088;13.446;2023-03-24T13:02:35;15.00;99.90
10143;DHT22;5112;54.088;13.446;2023-03-24T13:12:42;14.90;99.90
10143;DHT22;5112;54.088;13.446;2023-03-24T13:22:46;14.60;99.90
10143;DHT22;5112;54.088;13.446;2023-03-24T13:32:50;14.30;99.90
10143;DHT22;5112;54.088;13.446;2023-03-24T13:42:56;14.50;99.90
10143;DHT22;5112;54.088;13.446;2023-03-24T13:53:04;15.10;99.90
10143;DHT22;5112;54.088;13.446;2023-03-24T14:03:31;16.00;99.90
10143;DHT22;5112;54.088;13.446;2023-03-24T14:13:36;15.30;99.90
10143;DHT22;5112;54.088;13.446;2023-03-24T14:23:48;15.30;99.90
10143;DHT22;5112;54.088;13.446;2023-03-24T14:34:01;14.60;99.90
10143;DHT22;5112;54.088;13.446;2023-03-24T14:44:06;14.60;99.90
10143;DHT22;5112;54.088;13.446;2023-03-24T14:54:14;14.80;99.90
10143;DHT22;5112;54.088;13.446;2023-03-24T15:04:18;14.60;99.90
10143;DHT22;5112;54.088;13.446;2023-03-24T15:14:22;14.70;99.90
10143;DHT22;5112;54.088;13.446;2023-03-24T15:24:28;14.80;99.90
10143;DHT22;5112;54.088;13.446;2023-03-24T15:34:34;14.70;99.90
10143;DHT22;5112;54.088;13.446;2023-03-24T15:44:39;14.30;99.90
10143;DHT22;5112;54.088;13.446;2023-03-24T15:54:43;14.20;99.90
10143;DHT22;5112;54.088;13.446;2023-03-24T16:04:47;14.40;99.90
10143;DHT22;5112;54.088;13.446;2023-03-24T16:14:50;14.20;99.90
10143;DHT22;5112;54.088;13.446;2023-03-24T16:24:53;13.90;99.90
10143;DHT22;5112;54.088;13.446;2023-03-24T16:34:54;14.10;99.90
10143;DHT22;5112;54.088;13.446;2023-03-24T16:44:57;13.80;99.90
10143;DHT22;5112;54.088;13.446;2023-03-24T16:54:59;13.50;99.90
10143;DHT22;5112;54.088;13.446;2023-03-24T17:05:13;13.20;99.90
10143;DHT22;5112;54.088;13.446;2023-03-24T17:15:21;13.10;99.90
10143;DHT22;5112;54.088;13.446;2023-03-24T17:25:25;12.90;99.90
10143;DHT22;5112;54.088;13.446;2023-03-24T17:35:28;12.60;99.90
10143;DHT22;5112;54.088;13.446;2023-03-24T17:45:31;12.40;99.90
10143;DHT22;5112;54.088;13.446;2023-03-24T17:55:33;12.20;99.90
10143;DHT22;5112;54.088;13.446;2023-03-24T18:05:36;11.80;99.90
10143;DHT22;5112;54.088;13.446;2023-03-24T18:15:40;11.60;99.90
10143;DHT22;5112;54.088;13.446;2023-03-24T18:25:43;11.20;99.90
10143;DHT22;5112;54.088;13.446;2023-03-24T18:35:49;10.80;99.90
10143;DHT22;5112;54.088;13.446;2023-03-24T18:45:52;10.40;99.90
10143;DHT22;5112;54.088;13.446;2023-03-24T18:55:54;10.00;99.90
10143;DHT22;5112;54.088;13.446;2023-03-24T19:05:59;10.00;99.90
10143;DHT22;5112;54.088;13.446;2023-03-24T19:16:02;9.90;99.90
10143;DHT22;5112;54.088;13.446;2023-03-24T19:26:05;9.80;99.90
10143;DHT22;5112;54.088;13.446;2023-03-24T19:36:08;9.70;99.90
10143;DHT22;5112;54.088;13.446;2023-03-24T19:46:11;9.50;99.90
10143;DHT22;5112;54.088;13.446;2023-03-24T19:56:13;9.00;99.90
10143;DHT22;5112;54.088;13.446;2023-03-24T20:06:18;8.40;99.90
10143;DHT22;5112;54.088;13.446;2023-03-24T20:16:20;8.20;99.90
10143;DHT22;5112;54.088;13.446;2023-03-24T20:26:23;8.90;99.90
10143;DHT22;5112;54.088;13.446;2023-03-24T20:36:24;9.20;99.90
10143;DHT22;5112;54.088;13.446;2023-03-24T20:46:28;9.30;99.90
10143;DHT22;5112;54.088;13.446;2023-03-24T20:56:29;9.30;99.90
10143;DHT22;5112;54.088;13.446;2023-03-24T21:06:32;9.20;99.90
10143;DHT22;5112;54.088;13.446;2023-03-24T21:16:34;9.10;99.90
10143;DHT22;5112;54.088;13.446;2023-03-24T21:26:38;9.00;99.90
10143;DHT22;5112;54.088;13.446;2023-03-24T21:36:39;9.10;99.90
10143;DHT22;5112;54.088;13.446;2023-03-24T21:46:42;9.00;99.90
10143;DHT22;5112;54.088;13.446;2023-03-24T21:56:44;9.20;99.90
10143;DHT22;5112;54.088;13.446;2023-03-24T22:06:48;9.10;99.90
10143;DHT22;5112;54.088;13.446;2023-03-24T22:16:50;9.00;99.90
10143;DHT22;5112;54.088;13.446;2023-03-24T22:26:53;9.00;99.90
10143;DHT22;5112;54.088;13.446;2023-03-24T22:36:57;8.80;99.90
10143;DHT22;5112;54.088;13.446;2023-03-24T22:47:01;8.80;99.90
10143;DHT22;5112;54.088;13.446;2023-03-24T22:57:03;8.70;99.90
10143;DHT22;5112;54.088;13.446;2023-03-24T23:07:06;8.70;99.90
10143;DHT22;5112;54.088;13.446;2023-03-24T23:17:07;8.60;99.90
10143;DHT22;5112;54.088;13.446;2023-03-24T23:27:10;8.40;99.90
10143;DHT22;5112;54.088;13.446;2023-03-24T23:37:12;8.50;99.90
10143;DHT22;5112;54.088;13.446;2023-03-24T23:47:19;8.20;99.90
10143;DHT22;5112;54.088;13.446;2023-03-24T23:57:20;8.10;99.90
